sensor_id;sensor_type;location;lat;lon;timestamp;P1;durP1;ratioP1;P2;durP2;ratioP2
9042;SDS011;4556;49.150;8.808;2022-11-20T00:02:18;10.90;;;8.20;;
9042;SDS011;4556;49.150;8.808;2022-11-20T00:04:45;10.13;;;7.90;;
9042;SDS011;4556;49.150;8.808;2022-11-20T00:07:12;10.03;;;8.27;;
9042;SDS011;4556;49.150;8.808;2022-11-20T00:09:38;7.80;;;6.47;;
9042;SDS011;4556;49.150;8.808;2022-11-20T00:12:05;10.33;;;7.50;;
9042;SDS011;4556;49.150;8.808;2022-11-20T00:14:34;10.77;;;8.17;;
9042;SDS011;4556;49.150;8.808;2022-11-20T00:17:01;11.87;;;8.77;;
9042;SDS011;4556;49.150;8.808;2022-11-20T00:19:28;10.30;;;8.07;;
9042;SDS011;4556;49.150;8.808;2022-11-20T00:21:54;12.07;;;9.17;;
9042;SDS011;4556;49.150;8.808;2022-11-20T00:24:21;10.70;;;7.93;;
9042;SDS011;4556;49.150;8.808;2022-11-20T00:26:48;14.00;;;7.73;;
9042;SDS011;4556;49.150;8.808;2022-11-20T00:29:15;9.27;;;7.30;;
9042;SDS011;4556;49.150;8.808;2022-11-20T00:31:44;8.73;;;6.93;;
9042;SDS011;4556;49.150;8.808;2022-11-20T00:34:10;8.70;;;7.37;;
9042;SDS011;4556;49.150;8.808;2022-11-20T00:36:37;10.17;;;7.23;;
9042;SDS011;4556;49.150;8.808;2022-11-20T00:39:04;10.50;;;7.83;;
9042;SDS011;4556;49.150;8.808;2022-11-20T00:41:31;9.13;;;7.17;;
9042;SDS011;4556;49.150;8.808;2022-11-20T00:43:58;9.40;;;6.80;;
9042;SDS011;4556;49.150;8.808;2022-11-20T00:46:26;8.73;;;6.90;;
9042;SDS011;4556;49.150;8.808;2022-11-20T00:48:55;9.70;;;7.20;;
9042;SDS011;4556;49.150;8.808;2022-11-20T00:51:23;11.73;;;7.83;;
9042;SDS011;4556;49.150;8.808;2022-11-20T00:53:51;10.93;;;7.80;;
9042;SDS011;4556;49.150;8.808;2022-11-20T00:56:20;11.37;;;8.30;;
9042;SDS011;4556;49.150;8.808;2022-11-20T00:58:47;11.27;;;7.57;;
9042;SDS011;4556;49.150;8.808;2022-11-20T01:01:15;10.40;;;7.70;;
9042;SDS011;4556;49.150;8.808;2022-11-20T01:03:44;9.23;;;7.37;;
9042;SDS011;4556;49.150;8.808;2022-11-20T01:06:15;10.20;;;7.47;;
9042;SDS011;4556;49.150;8.808;2022-11-20T01:08:44;9.60;;;7.67;;
9042;SDS011;4556;49.150;8.808;2022-11-20T01:11:12;12.10;;;8.10;;
9042;SDS011;4556;49.150;8.808;2022-11-20T01:13:42;12.27;;;8.60;;
9042;SDS011;4556;49.150;8.808;2022-11-20T01:16:11;12.83;;;8.47;;
9042;SDS011;4556;49.150;8.808;2022-11-20T01:18:40;13.10;;;8.70;;
9042;SDS011;4556;49.150;8.808;2022-11-20T01:21:09;12.13;;;8.57;;
9042;SDS011;4556;49.150;8.808;2022-11-20T01:23:40;15.83;;;9.43;;
9042;SDS011;4556;49.150;8.808;2022-11-20T01:26:08;9.87;;;7.83;;
9042;SDS011;4556;49.150;8.808;2022-11-20T01:28:37;13.17;;;8.97;;
9042;SDS011;4556;49.150;8.808;2022-11-20T01:31:10;12.97;;;9.13;;
9042;SDS011;4556;49.150;8.808;2022-11-20T01:33:38;13.47;;;9.07;;
9042;SDS011;4556;49.150;8.808;2022-11-20T01:36:06;13.90;;;9.87;;
9042;SDS011;4556;49.150;8.808;2022-11-20T01:38:34;12.97;;;9.60;;
9042;SDS011;4556;49.150;8.808;2022-11-20T01:41:02;16.67;;;10.27;;
9042;SDS011;4556;49.150;8.808;2022-11-20T01:43:29;14.33;;;9.87;;
9042;SDS011;4556;49.150;8.808;2022-11-20T01:45:57;11.20;;;8.87;;
9042;SDS011;4556;49.150;8.808;2022-11-20T01:48:40;12.83;;;9.67;;
9042;SDS011;4556;49.150;8.808;2022-11-20T01:51:15;15.73;;;10.10;;
9042;SDS011;4556;49.150;8.808;2022-11-20T01:53:47;11.53;;;9.53;;
9042;SDS011;4556;49.150;8.808;2022-11-20T01:56:17;13.37;;;9.17;;
9042;SDS011;4556;49.150;8.808;2022-11-20T01:58:54;12.43;;;9.63;;
9042;SDS011;4556;49.150;8.808;2022-11-20T02:01:23;13.90;;;10.47;;
9042;SDS011;4556;49.150;8.808;2022-11-20T02:03:50;14.13;;;10.50;;
9042;SDS011;4556;49.150;8.808;2022-11-20T02:06:19;16.23;;;10.57;;
9042;SDS011;4556;49.150;8.808;2022-11-20T02:08:50;15.73;;;10.47;;
9042;SDS011;4556;49.150;8.808;2022-11-20T02:11:19;15.60;;;10.63;;
9042;SDS011;4556;49.150;8.808;2022-11-20T02:13:47;14.07;;;10.10;;
9042;SDS011;4556;49.150;8.808;2022-11-20T02:16:15;13.37;;;10.17;;
9042;SDS011;4556;49.150;8.808;2022-11-20T02:18:45;13.73;;;10.77;;
9042;SDS011;4556;49.150;8.808;2022-11-20T02:21:15;12.67;;;9.93;;
9042;SDS011;4556;49.150;8.808;2022-11-20T02:24:03;14.67;;;10.20;;
9042;SDS011;4556;49.150;8.808;2022-11-20T02:26:34;14.50;;;10.53;;
9042;SDS011;4556;49.150;8.808;2022-11-20T02:29:06;14.13;;;10.20;;
9042;SDS011;4556;49.150;8.808;2022-11-20T02:31:35;14.37;;;10.63;;
9042;SDS011;4556;49.150;8.808;2022-11-20T02:34:04;13.97;;;11.33;;
9042;SDS011;4556;49.150;8.808;2022-11-20T02:36:31;15.20;;;10.70;;
9042;SDS011;4556;49.150;8.808;2022-11-20T02:39:00;15.03;;;11.00;;
9042;SDS011;4556;49.150;8.808;2022-11-20T02:41:32;14.03;;;10.90;;
9042;SDS011;4556;49.150;8.808;2022-11-20T02:44:00;14.70;;;11.00;;
9042;SDS011;4556;49.150;8.808;2022-11-20T02:46:27;16.43;;;11.87;;
9042;SDS011;4556;49.150;8.808;2022-11-20T02:48:54;14.97;;;10.93;;
9042;SDS011;4556;49.150;8.808;2022-11-20T02:51:22;14.00;;;10.83;;
9042;SDS011;4556;49.150;8.808;2022-11-20T02:53:49;15.43;;;11.77;;
9042;SDS011;4556;49.150;8.808;2022-11-20T02:56:16;13.77;;;11.13;;
9042;SDS011;4556;49.150;8.808;2022-11-20T02:58:46;13.87;;;10.97;;
9042;SDS011;4556;49.150;8.808;2022-11-20T03:01:13;15.67;;;11.43;;
9042;SDS011;4556;49.150;8.808;2022-11-20T03:03:40;14.97;;;11.10;;
9042;SDS011;4556;49.150;8.808;2022-11-20T03:06:07;14.13;;;11.27;;
9042;SDS011;4556;49.150;8.808;2022-11-20T03:08:34;14.60;;;10.93;;
9042;SDS011;4556;49.150;8.808;2022-11-20T03:11:02;16.60;;;11.27;;
9042;SDS011;4556;49.150;8.808;2022-11-20T03:13:31;16.50;;;11.30;;
9042;SDS011;4556;49.150;8.808;2022-11-20T03:16:03;18.10;;;11.80;;
9042;SDS011;4556;49.150;8.808;2022-11-20T03:18:32;17.47;;;10.87;;
9042;SDS011;4556;49.150;8.808;2022-11-20T03:20:59;17.53;;;11.03;;
9042;SDS011;4556;49.150;8.808;2022-11-20T03:23:28;17.80;;;11.20;;
9042;SDS011;4556;49.150;8.808;2022-11-20T03:25:56;12.33;;;9.73;;
9042;SDS011;4556;49.150;8.808;2022-11-20T03:28:32;11.50;;;8.97;;
9042;SDS011;4556;49.150;8.808;2022-11-20T03:31:05;16.33;;;9.67;;
9042;SDS011;4556;49.150;8.808;2022-11-20T03:33:36;12.90;;;9.60;;
9042;SDS011;4556;49.150;8.808;2022-11-20T03:36:04;12.37;;;8.97;;
9042;SDS011;4556;49.150;8.808;2022-11-20T03:38:34;12.93;;;9.13;;
9042;SDS011;4556;49.150;8.808;2022-11-20T03:41:02;15.77;;;10.03;;
9042;SDS011;4556;49.150;8.808;2022-11-20T03:43:30;12.33;;;9.10;;
9042;SDS011;4556;49.150;8.808;2022-11-20T03:45:57;12.40;;;9.80;;
9042;SDS011;4556;49.150;8.808;2022-11-20T03:48:26;12.47;;;8.90;;
9042;SDS011;4556;49.150;8.808;2022-11-20T03:51:06;12.27;;;9.00;;
9042;SDS011;4556;49.150;8.808;2022-11-20T03:53:34;14.20;;;8.37;;
9042;SDS011;4556;49.150;8.808;2022-11-20T03:56:01;11.40;;;9.00;;
9042;SDS011;4556;49.150;8.808;2022-11-20T03:58:29;11.13;;;8.60;;
9042;SDS011;4556;49.150;8.808;2022-11-20T04:00:56;13.17;;;9.60;;
9042;SDS011;4556;49.150;8.808;2022-11-20T04:03:23;11.60;;;9.00;;
9042;SDS011;4556;49.150;8.808;2022-11-20T04:05:51;10.70;;;8.30;;
9042;SDS011;4556;49.150;8.808;2022-11-20T04:08:18;10.00;;;7.60;;
9042;SDS011;4556;49.150;8.808;2022-11-20T04:10:45;10.43;;;8.17;;
9042;SDS011;4556;49.150;8.808;2022-11-20T04:13:12;10.37;;;7.00;;
9042;SDS011;4556;49.150;8.808;2022-11-20T04:15:39;12.70;;;8.10;;
9042;SDS011;4556;49.150;8.808;2022-11-20T04:18:06;10.10;;;7.30;;
9042;SDS011;4556;49.150;8.808;2022-11-20T04:20:32;10.63;;;6.67;;
9042;SDS011;4556;49.150;8.808;2022-11-20T04:23:01;15.80;;;7.47;;
9042;SDS011;4556;49.150;8.808;2022-11-20T04:25:28;10.33;;;7.33;;
9042;SDS011;4556;49.150;8.808;2022-11-20T04:27:55;12.80;;;7.27;;
9042;SDS011;4556;49.150;8.808;2022-11-20T04:30:21;8.73;;;6.70;;
9042;SDS011;4556;49.150;8.808;2022-11-20T04:32:48;9.87;;;6.50;;
9042;SDS011;4556;49.150;8.808;2022-11-20T04:35:15;9.37;;;6.50;;
9042;SDS011;4556;49.150;8.808;2022-11-20T04:37:42;9.57;;;6.80;;
9042;SDS011;4556;49.150;8.808;2022-11-20T04:40:11;10.40;;;6.40;;
9042;SDS011;4556;49.150;8.808;2022-11-20T04:42:38;9.03;;;6.23;;
9042;SDS011;4556;49.150;8.808;2022-11-20T04:45:05;8.03;;;6.03;;
9042;SDS011;4556;49.150;8.808;2022-11-20T04:47:33;7.87;;;6.40;;
9042;SDS011;4556;49.150;8.808;2022-11-20T04:49:59;10.00;;;6.30;;
9042;SDS011;4556;49.150;8.808;2022-11-20T04:52:27;6.23;;;5.53;;
9042;SDS011;4556;49.150;8.808;2022-11-20T04:54:53;8.80;;;6.37;;
9042;SDS011;4556;49.150;8.808;2022-11-20T04:57:22;7.47;;;5.73;;
9042;SDS011;4556;49.150;8.808;2022-11-20T04:59:49;8.37;;;5.80;;
9042;SDS011;4556;49.150;8.808;2022-11-20T05:02:16;7.70;;;6.00;;
9042;SDS011;4556;49.150;8.808;2022-11-20T05:04:43;8.07;;;5.60;;
9042;SDS011;4556;49.150;8.808;2022-11-20T05:07:10;8.13;;;6.07;;
9042;SDS011;4556;49.150;8.808;2022-11-20T05:09:37;7.33;;;5.03;;
9042;SDS011;4556;49.150;8.808;2022-11-20T05:12:04;9.50;;;5.87;;
9042;SDS011;4556;49.150;8.808;2022-11-20T05:14:35;7.40;;;5.50;;
9042;SDS011;4556;49.150;8.808;2022-11-20T05:17:01;7.80;;;5.83;;
9042;SDS011;4556;49.150;8.808;2022-11-20T05:19:29;7.67;;;5.43;;
9042;SDS011;4556;49.150;8.808;2022-11-20T05:21:56;12.87;;;5.60;;
9042;SDS011;4556;49.150;8.808;2022-11-20T05:24:23;6.33;;;5.30;;
9042;SDS011;4556;49.150;8.808;2022-11-20T05:26:49;8.87;;;5.57;;
9042;SDS011;4556;49.150;8.808;2022-11-20T05:29:16;7.53;;;5.23;;
9042;SDS011;4556;49.150;8.808;2022-11-20T05:31:45;6.37;;;5.00;;
9042;SDS011;4556;49.150;8.808;2022-11-20T05:34:12;8.47;;;5.53;;
9042;SDS011;4556;49.150;8.808;2022-11-20T05:36:39;6.60;;;5.33;;
9042;SDS011;4556;49.150;8.808;2022-11-20T05:39:06;9.60;;;5.27;;
9042;SDS011;4556;49.150;8.808;2022-11-20T05:41:33;6.60;;;5.03;;
9042;SDS011;4556;49.150;8.808;2022-11-20T05:44:00;5.97;;;4.77;;
9042;SDS011;4556;49.150;8.808;2022-11-20T05:46:27;7.57;;;4.90;;
9042;SDS011;4556;49.150;8.808;2022-11-20T05:48:56;5.83;;;4.77;;
9042;SDS011;4556;49.150;8.808;2022-11-20T05:51:24;6.63;;;4.80;;
9042;SDS011;4556;49.150;8.808;2022-11-20T05:53:51;6.20;;;4.10;;
9042;SDS011;4556;49.150;8.808;2022-11-20T05:56:19;6.33;;;4.13;;
9042;SDS011;4556;49.150;8.808;2022-11-20T05:58:47;6.13;;;4.70;;
9042;SDS011;4556;49.150;8.808;2022-11-20T06:01:15;5.63;;;4.57;;
9042;SDS011;4556;49.150;8.808;2022-11-20T06:03:44;5.87;;;4.50;;
9042;SDS011;4556;49.150;8.808;2022-11-20T06:06:14;5.23;;;4.07;;
9042;SDS011;4556;49.150;8.808;2022-11-20T06:08:42;5.60;;;4.73;;
9042;SDS011;4556;49.150;8.808;2022-11-20T06:11:10;6.93;;;4.30;;
9042;SDS011;4556;49.150;8.808;2022-11-20T06:13:37;5.53;;;4.50;;
9042;SDS011;4556;49.150;8.808;2022-11-20T06:16:05;5.37;;;4.20;;
9042;SDS011;4556;49.150;8.808;2022-11-20T06:18:32;5.20;;;4.10;;
9042;SDS011;4556;49.150;8.808;2022-11-20T06:21:00;7.50;;;4.50;;
9042;SDS011;4556;49.150;8.808;2022-11-20T06:23:30;6.07;;;4.20;;
9042;SDS011;4556;49.150;8.808;2022-11-20T06:25:58;5.23;;;4.07;;
9042;SDS011;4556;49.150;8.808;2022-11-20T06:28:30;4.70;;;3.90;;
9042;SDS011;4556;49.150;8.808;2022-11-20T06:30:57;6.07;;;4.17;;
9042;SDS011;4556;49.150;8.808;2022-11-20T06:33:24;6.13;;;4.20;;
9042;SDS011;4556;49.150;8.808;2022-11-20T06:35:52;5.00;;;4.07;;
9042;SDS011;4556;49.150;8.808;2022-11-20T06:38:22;5.83;;;3.90;;
9042;SDS011;4556;49.150;8.808;2022-11-20T06:40:50;5.57;;;3.80;;
9042;SDS011;4556;49.150;8.808;2022-11-20T06:43:17;5.23;;;3.60;;
9042;SDS011;4556;49.150;8.808;2022-11-20T06:45:44;5.20;;;3.80;;
9042;SDS011;4556;49.150;8.808;2022-11-20T06:48:11;7.67;;;4.00;;
9042;SDS011;4556;49.150;8.808;2022-11-20T06:50:38;7.53;;;4.13;;
9042;SDS011;4556;49.150;8.808;2022-11-20T06:53:05;5.37;;;3.87;;
9042;SDS011;4556;49.150;8.808;2022-11-20T06:55:32;4.57;;;3.60;;
9042;SDS011;4556;49.150;8.808;2022-11-20T06:58:00;4.83;;;3.77;;
9042;SDS011;4556;49.150;8.808;2022-11-20T07:00:27;4.77;;;3.57;;
9042;SDS011;4556;49.150;8.808;2022-11-20T07:02:54;5.20;;;4.03;;
9042;SDS011;4556;49.150;8.808;2022-11-20T07:05:21;5.73;;;3.73;;
9042;SDS011;4556;49.150;8.808;2022-11-20T07:07:48;5.77;;;3.80;;
9042;SDS011;4556;49.150;8.808;2022-11-20T07:10:14;5.20;;;3.80;;
9042;SDS011;4556;49.150;8.808;2022-11-20T07:12:41;5.37;;;3.90;;
9042;SDS011;4556;49.150;8.808;2022-11-20T07:15:10;4.43;;;3.80;;
9042;SDS011;4556;49.150;8.808;2022-11-20T07:17:37;5.37;;;4.00;;
9042;SDS011;4556;49.150;8.808;2022-11-20T07:20:04;6.33;;;3.90;;
9042;SDS011;4556;49.150;8.808;2022-11-20T07:22:32;5.77;;;3.83;;
9042;SDS011;4556;49.150;8.808;2022-11-20T07:24:58;4.57;;;3.83;;
9042;SDS011;4556;49.150;8.808;2022-11-20T07:27:26;5.30;;;3.70;;
9042;SDS011;4556;49.150;8.808;2022-11-20T07:29:53;4.17;;;3.60;;
9042;SDS011;4556;49.150;8.808;2022-11-20T07:32:22;5.73;;;3.63;;
9042;SDS011;4556;49.150;8.808;2022-11-20T07:34:49;5.43;;;4.00;;
9042;SDS011;4556;49.150;8.808;2022-11-20T07:37:16;4.40;;;3.40;;
9042;SDS011;4556;49.150;8.808;2022-11-20T07:39:43;5.10;;;3.23;;
9042;SDS011;4556;49.150;8.808;2022-11-20T07:42:10;4.17;;;3.53;;
9042;SDS011;4556;49.150;8.808;2022-11-20T07:44:38;4.03;;;3.33;;
9042;SDS011;4556;49.150;8.808;2022-11-20T07:47:05;6.53;;;3.53;;
9042;SDS011;4556;49.150;8.808;2022-11-20T07:49:34;4.10;;;3.10;;
9042;SDS011;4556;49.150;8.808;2022-11-20T07:52:00;5.60;;;3.53;;
9042;SDS011;4556;49.150;8.808;2022-11-20T07:54:27;5.10;;;3.53;;
9042;SDS011;4556;49.150;8.808;2022-11-20T07:56:57;4.43;;;3.03;;
9042;SDS011;4556;49.150;8.808;2022-11-20T07:59:25;4.00;;;3.40;;
9042;SDS011;4556;49.150;8.808;2022-11-20T08:01:52;3.83;;;3.40;;
9042;SDS011;4556;49.150;8.808;2022-11-20T08:04:19;3.93;;;3.30;;
9042;SDS011;4556;49.150;8.808;2022-11-20T08:06:48;4.23;;;3.37;;
9042;SDS011;4556;49.150;8.808;2022-11-20T08:09:15;4.27;;;3.67;;
9042;SDS011;4556;49.150;8.808;2022-11-20T08:11:41;5.20;;;4.00;;
9042;SDS011;4556;49.150;8.808;2022-11-20T08:14:26;4.47;;;3.47;;
9042;SDS011;4556;49.150;8.808;2022-11-20T08:16:53;7.50;;;4.23;;
9042;SDS011;4556;49.150;8.808;2022-11-20T08:19:21;4.30;;;3.90;;
9042;SDS011;4556;49.150;8.808;2022-11-20T08:21:50;4.83;;;4.10;;
9042;SDS011;4556;49.150;8.808;2022-11-20T08:24:16;5.57;;;4.43;;
9042;SDS011;4556;49.150;8.808;2022-11-20T08:26:44;5.27;;;3.70;;
9042;SDS011;4556;49.150;8.808;2022-11-20T08:29:11;4.43;;;3.80;;
9042;SDS011;4556;49.150;8.808;2022-11-20T08:31:38;6.03;;;4.33;;
9042;SDS011;4556;49.150;8.808;2022-11-20T08:34:05;4.70;;;3.87;;
9042;SDS011;4556;49.150;8.808;2022-11-20T08:36:32;6.87;;;5.20;;
9042;SDS011;4556;49.150;8.808;2022-11-20T08:39:02;4.40;;;4.00;;
9042;SDS011;4556;49.150;8.808;2022-11-20T08:41:29;4.80;;;4.10;;
9042;SDS011;4556;49.150;8.808;2022-11-20T08:43:59;5.57;;;4.57;;
9042;SDS011;4556;49.150;8.808;2022-11-20T08:46:27;6.83;;;4.20;;
9042;SDS011;4556;49.150;8.808;2022-11-20T08:48:59;5.70;;;4.20;;
9042;SDS011;4556;49.150;8.808;2022-11-20T08:51:26;3.70;;;3.23;;
9042;SDS011;4556;49.150;8.808;2022-11-20T08:53:53;4.67;;;3.47;;
9042;SDS011;4556;49.150;8.808;2022-11-20T08:56:22;3.70;;;3.00;;
9042;SDS011;4556;49.150;8.808;2022-11-20T08:58:49;4.67;;;3.60;;
9042;SDS011;4556;49.150;8.808;2022-11-20T09:01:16;4.73;;;3.43;;
9042;SDS011;4556;49.150;8.808;2022-11-20T09:03:44;4.20;;;3.80;;
9042;SDS011;4556;49.150;8.808;2022-11-20T09:06:11;6.83;;;4.33;;
9042;SDS011;4556;49.150;8.808;2022-11-20T09:08:38;7.13;;;4.30;;
9042;SDS011;4556;49.150;8.808;2022-11-20T09:11:05;6.57;;;4.57;;
9042;SDS011;4556;49.150;8.808;2022-11-20T09:13:34;5.30;;;4.30;;
9042;SDS011;4556;49.150;8.808;2022-11-20T09:16:03;5.37;;;4.50;;
9042;SDS011;4556;49.150;8.808;2022-11-20T09:18:31;6.53;;;4.40;;
9042;SDS011;4556;49.150;8.808;2022-11-20T09:20:59;6.10;;;5.37;;
9042;SDS011;4556;49.150;8.808;2022-11-20T09:23:27;4.40;;;4.00;;
9042;SDS011;4556;49.150;8.808;2022-11-20T09:26:00;6.07;;;4.70;;
9042;SDS011;4556;49.150;8.808;2022-11-20T09:28:28;5.93;;;4.30;;
9042;SDS011;4556;49.150;8.808;2022-11-20T09:30:57;5.70;;;4.60;;
9042;SDS011;4556;49.150;8.808;2022-11-20T09:33:24;5.90;;;4.57;;
9042;SDS011;4556;49.150;8.808;2022-11-20T09:35:51;6.33;;;5.07;;
9042;SDS011;4556;49.150;8.808;2022-11-20T09:38:18;6.33;;;4.27;;
9042;SDS011;4556;49.150;8.808;2022-11-20T09:40:47;5.00;;;4.50;;
9042;SDS011;4556;49.150;8.808;2022-11-20T09:43:20;5.53;;;4.63;;
9042;SDS011;4556;49.150;8.808;2022-11-20T09:45:58;6.27;;;4.40;;
9042;SDS011;4556;49.150;8.808;2022-11-20T09:48:37;7.97;;;5.20;;
9042;SDS011;4556;49.150;8.808;2022-11-20T09:51:13;4.63;;;4.13;;
9042;SDS011;4556;49.150;8.808;2022-11-20T09:53:53;6.07;;;3.77;;
9042;SDS011;4556;49.150;8.808;2022-11-20T09:56:30;5.63;;;4.17;;
9042;SDS011;4556;49.150;8.808;2022-11-20T09:59:02;6.13;;;3.57;;
9042;SDS011;4556;49.150;8.808;2022-11-20T10:01:35;4.17;;;3.77;;
9042;SDS011;4556;49.150;8.808;2022-11-20T10:04:06;4.73;;;3.83;;
9042;SDS011;4556;49.150;8.808;2022-11-20T10:06:41;5.70;;;3.53;;
9042;SDS011;4556;49.150;8.808;2022-11-20T10:09:18;5.93;;;3.40;;
9042;SDS011;4556;49.150;8.808;2022-11-20T10:11:51;4.07;;;3.60;;
9042;SDS011;4556;49.150;8.808;2022-11-20T10:14:26;3.97;;;3.50;;
9042;SDS011;4556;49.150;8.808;2022-11-20T10:17:03;6.93;;;3.93;;
9042;SDS011;4556;49.150;8.808;2022-11-20T10:19:45;4.50;;;3.20;;
9042;SDS011;4556;49.150;8.808;2022-11-20T10:22:26;4.73;;;3.60;;
9042;SDS011;4556;49.150;8.808;2022-11-20T10:25:05;4.93;;;3.20;;
9042;SDS011;4556;49.150;8.808;2022-11-20T10:27:49;4.20;;;3.67;;
9042;SDS011;4556;49.150;8.808;2022-11-20T10:30:26;4.73;;;3.43;;
9042;SDS011;4556;49.150;8.808;2022-11-20T10:32:58;4.70;;;3.30;;
9042;SDS011;4556;49.150;8.808;2022-11-20T10:35:33;3.70;;;3.07;;
9042;SDS011;4556;49.150;8.808;2022-11-20T10:38:02;6.20;;;3.77;;
9042;SDS011;4556;49.150;8.808;2022-11-20T10:40:34;6.90;;;4.10;;
9042;SDS011;4556;49.150;8.808;2022-11-20T10:43:07;6.07;;;4.00;;
9042;SDS011;4556;49.150;8.808;2022-11-20T10:45:43;4.83;;;3.50;;
9042;SDS011;4556;49.150;8.808;2022-11-20T10:48:19;3.60;;;2.87;;
9042;SDS011;4556;49.150;8.808;2022-11-20T10:50:54;5.30;;;2.93;;
9042;SDS011;4556;49.150;8.808;2022-11-20T10:56:24;3.60;;;2.90;;
9042;SDS011;4556;49.150;8.808;2022-11-20T10:59:02;3.77;;;3.03;;
9042;SDS011;4556;49.150;8.808;2022-11-20T11:01:39;4.50;;;3.47;;
9042;SDS011;4556;49.150;8.808;2022-11-20T11:04:14;5.90;;;4.43;;
9042;SDS011;4556;49.150;8.808;2022-11-20T11:06:49;6.17;;;4.33;;
9042;SDS011;4556;49.150;8.808;2022-11-20T11:09:21;6.00;;;4.83;;
9042;SDS011;4556;49.150;8.808;2022-11-20T11:11:56;5.30;;;4.70;;
9042;SDS011;4556;49.150;8.808;2022-11-20T11:14:23;8.40;;;5.13;;
9042;SDS011;4556;49.150;8.808;2022-11-20T11:16:50;7.77;;;4.80;;
9042;SDS011;4556;49.150;8.808;2022-11-20T11:19:20;8.13;;;4.97;;
9042;SDS011;4556;49.150;8.808;2022-11-20T11:21:47;8.00;;;4.73;;
9042;SDS011;4556;49.150;8.808;2022-11-20T11:24:19;8.60;;;4.20;;
9042;SDS011;4556;49.150;8.808;2022-11-20T11:26:51;5.13;;;4.30;;
9042;SDS011;4556;49.150;8.808;2022-11-20T11:29:21;5.97;;;4.57;;
9042;SDS011;4556;49.150;8.808;2022-11-20T11:31:48;5.73;;;4.50;;
9042;SDS011;4556;49.150;8.808;2022-11-20T11:34:16;4.47;;;4.07;;
9042;SDS011;4556;49.150;8.808;2022-11-20T11:36:49;6.37;;;4.00;;
9042;SDS011;4556;49.150;8.808;2022-11-20T11:39:24;8.23;;;3.77;;
9042;SDS011;4556;49.150;8.808;2022-11-20T11:41:53;6.53;;;4.07;;
9042;SDS011;4556;49.150;8.808;2022-11-20T11:44:21;6.63;;;3.80;;
9042;SDS011;4556;49.150;8.808;2022-11-20T11:47:08;5.67;;;3.87;;
9042;SDS011;4556;49.150;8.808;2022-11-20T11:49:38;6.03;;;3.97;;
9042;SDS011;4556;49.150;8.808;2022-11-20T11:52:08;7.03;;;4.60;;
9042;SDS011;4556;49.150;8.808;2022-11-20T11:54:41;6.00;;;3.77;;
9042;SDS011;4556;49.150;8.808;2022-11-20T11:57:13;6.83;;;3.80;;
9042;SDS011;4556;49.150;8.808;2022-11-20T11:59:47;6.40;;;3.63;;
9042;SDS011;4556;49.150;8.808;2022-11-20T12:02:27;7.60;;;3.97;;
9042;SDS011;4556;49.150;8.808;2022-11-20T12:05:02;11.57;;;3.70;;
9042;SDS011;4556;49.150;8.808;2022-11-20T12:07:39;5.27;;;3.30;;
9042;SDS011;4556;49.150;8.808;2022-11-20T12:10:13;5.20;;;2.97;;
9042;SDS011;4556;49.150;8.808;2022-11-20T12:12:48;8.57;;;3.20;;
9042;SDS011;4556;49.150;8.808;2022-11-20T12:15:22;7.77;;;4.20;;
9042;SDS011;4556;49.150;8.808;2022-11-20T12:17:54;6.53;;;3.53;;
9042;SDS011;4556;49.150;8.808;2022-11-20T12:20:24;4.90;;;2.63;;
9042;SDS011;4556;49.150;8.808;2022-11-20T12:22:59;6.37;;;3.10;;
9042;SDS011;4556;49.150;8.808;2022-11-20T12:25:31;5.73;;;2.60;;
9042;SDS011;4556;49.150;8.808;2022-11-20T12:31:02;5.00;;;2.33;;
9042;SDS011;4556;49.150;8.808;2022-11-20T12:33:47;5.20;;;2.27;;
9042;SDS011;4556;49.150;8.808;2022-11-20T12:36:25;4.37;;;2.10;;
9042;SDS011;4556;49.150;8.808;2022-11-20T12:41:54;4.77;;;2.17;;
9042;SDS011;4556;49.150;8.808;2022-11-20T12:44:57;5.23;;;1.83;;
9042;SDS011;4556;49.150;8.808;2022-11-20T12:47:41;6.47;;;2.00;;
9042;SDS011;4556;49.150;8.808;2022-11-20T12:50:18;4.90;;;2.07;;
9042;SDS011;4556;49.150;8.808;2022-11-20T12:52:56;8.10;;;2.70;;
9042;SDS011;4556;49.150;8.808;2022-11-20T12:58:17;5.53;;;2.50;;
9042;SDS011;4556;49.150;8.808;2022-11-20T13:00:53;4.80;;;1.57;;
9042;SDS011;4556;49.150;8.808;2022-11-20T13:06:12;3.43;;;1.70;;
9042;SDS011;4556;49.150;8.808;2022-11-20T13:08:43;1.77;;;1.00;;
9042;SDS011;4556;49.150;8.808;2022-11-20T13:11:16;3.57;;;1.57;;
9042;SDS011;4556;49.150;8.808;2022-11-20T13:14:03;3.10;;;1.50;;
9042;SDS011;4556;49.150;8.808;2022-11-20T13:16:38;5.23;;;1.60;;
9042;SDS011;4556;49.150;8.808;2022-11-20T13:19:11;2.73;;;1.53;;
9042;SDS011;4556;49.150;8.808;2022-11-20T13:21:40;5.17;;;1.50;;
9042;SDS011;4556;49.150;8.808;2022-11-20T13:24:20;1.87;;;1.33;;
9042;SDS011;4556;49.150;8.808;2022-11-20T13:27:00;5.03;;;1.50;;
9042;SDS011;4556;49.150;8.808;2022-11-20T13:29:28;5.63;;;2.20;;
9042;SDS011;4556;49.150;8.808;2022-11-20T13:32:01;1.87;;;1.40;;
9042;SDS011;4556;49.150;8.808;2022-11-20T13:34:31;3.53;;;1.37;;
9042;SDS011;4556;49.150;8.808;2022-11-20T13:36:58;2.87;;;1.53;;
9042;SDS011;4556;49.150;8.808;2022-11-20T13:39:30;3.80;;;1.47;;
9042;SDS011;4556;49.150;8.808;2022-11-20T13:41:58;6.00;;;2.20;;
9042;SDS011;4556;49.150;8.808;2022-11-20T13:44:30;3.73;;;1.40;;
9042;SDS011;4556;49.150;8.808;2022-11-20T13:47:03;3.83;;;1.40;;
9042;SDS011;4556;49.150;8.808;2022-11-20T13:49:31;3.23;;;1.10;;
9042;SDS011;4556;49.150;8.808;2022-11-20T13:52:04;2.73;;;0.97;;
9042;SDS011;4556;49.150;8.808;2022-11-20T13:54:56;2.37;;;1.10;;
9042;SDS011;4556;49.150;8.808;2022-11-20T14:00:25;2.93;;;0.90;;
9042;SDS011;4556;49.150;8.808;2022-11-20T14:03:06;3.80;;;0.90;;
9042;SDS011;4556;49.150;8.808;2022-11-20T14:05:38;1.43;;;0.80;;
9042;SDS011;4556;49.150;8.808;2022-11-20T14:08:17;1.13;;;0.80;;
9042;SDS011;4556;49.150;8.808;2022-11-20T14:10:50;1.87;;;0.90;;
9042;SDS011;4556;49.150;8.808;2022-11-20T14:13:19;4.93;;;1.17;;
9042;SDS011;4556;49.150;8.808;2022-11-20T14:15:46;5.20;;;1.03;;
9042;SDS011;4556;49.150;8.808;2022-11-20T14:18:14;1.47;;;0.90;;
9042;SDS011;4556;49.150;8.808;2022-11-20T14:20:45;1.60;;;0.90;;
9042;SDS011;4556;49.150;8.808;2022-11-20T14:23:22;2.80;;;0.80;;
9042;SDS011;4556;49.150;8.808;2022-11-20T14:25:51;2.27;;;1.07;;
9042;SDS011;4556;49.150;8.808;2022-11-20T14:28:22;3.07;;;1.10;;
9042;SDS011;4556;49.150;8.808;2022-11-20T14:30:52;2.87;;;1.60;;
9042;SDS011;4556;49.150;8.808;2022-11-20T14:33:20;2.13;;;1.07;;
9042;SDS011;4556;49.150;8.808;2022-11-20T14:35:50;3.83;;;1.20;;
9042;SDS011;4556;49.150;8.808;2022-11-20T14:38:21;2.00;;;0.83;;
9042;SDS011;4556;49.150;8.808;2022-11-20T14:40:50;1.77;;;0.90;;
9042;SDS011;4556;49.150;8.808;2022-11-20T14:43:19;0.97;;;0.70;;
9042;SDS011;4556;49.150;8.808;2022-11-20T14:45:54;7.53;;;0.93;;
9042;SDS011;4556;49.150;8.808;2022-11-20T14:48:26;3.30;;;1.20;;
9042;SDS011;4556;49.150;8.808;2022-11-20T14:50:56;2.00;;;1.20;;
9042;SDS011;4556;49.150;8.808;2022-11-20T14:53:24;2.10;;;0.77;;
9042;SDS011;4556;49.150;8.808;2022-11-20T14:55:55;2.03;;;1.07;;
9042;SDS011;4556;49.150;8.808;2022-11-20T14:58:27;2.97;;;0.90;;
9042;SDS011;4556;49.150;8.808;2022-11-20T15:00:56;1.83;;;0.80;;
9042;SDS011;4556;49.150;8.808;2022-11-20T15:03:30;3.27;;;1.00;;
9042;SDS011;4556;49.150;8.808;2022-11-20T15:05:58;1.77;;;0.80;;
9042;SDS011;4556;49.150;8.808;2022-11-20T15:08:25;1.70;;;0.90;;
9042;SDS011;4556;49.150;8.808;2022-11-20T15:10:52;2.53;;;1.03;;
9042;SDS011;4556;49.150;8.808;2022-11-20T15:13:24;4.73;;;1.03;;
9042;SDS011;4556;49.150;8.808;2022-11-20T15:15:57;2.73;;;0.80;;
9042;SDS011;4556;49.150;8.808;2022-11-20T15:18:26;3.30;;;1.10;;
9042;SDS011;4556;49.150;8.808;2022-11-20T15:20:56;1.30;;;0.87;;
9042;SDS011;4556;49.150;8.808;2022-11-20T15:23:27;3.03;;;0.90;;
9042;SDS011;4556;49.150;8.808;2022-11-20T15:25:54;2.47;;;0.80;;
9042;SDS011;4556;49.150;8.808;2022-11-20T15:28:23;2.03;;;0.90;;
9042;SDS011;4556;49.150;8.808;2022-11-20T15:30:56;1.73;;;0.63;;
9042;SDS011;4556;49.150;8.808;2022-11-20T15:33:23;2.27;;;1.10;;
9042;SDS011;4556;49.150;8.808;2022-11-20T15:35:50;2.23;;;1.10;;
9042;SDS011;4556;49.150;8.808;2022-11-20T15:38:17;3.33;;;0.83;;
9042;SDS011;4556;49.150;8.808;2022-11-20T15:40:44;2.27;;;1.10;;
9042;SDS011;4556;49.150;8.808;2022-11-20T15:43:11;2.40;;;1.03;;
9042;SDS011;4556;49.150;8.808;2022-11-20T15:45:41;1.30;;;0.90;;